Portada
METAR-TAF:

METAR-TAF

Aeroports :

Golden, Colúmbia Britànica, Canadà

latitud: 51-18N, longitud: 116-59W, altitud: 785 m

Observació

L'informe es va fer fa 6 hores i 18 minuts, a les 00:00 UTC
Vent 2 kt del Nord/Nord-Oest
Temperatura -6°C
Humitat 86%
Pressió 1022 hPa
Visibilitat: 32.2 km
Cel ennuvolat a una alçada de 3300 ft
Cel cobert a una alçada de 9500 ft

METAR: CYGE 110000Z 33002KT 20SM BKN033 OVC095 M06/M08 A3018 RMK SC7AC1 LAST STFD OBS/NEXT 111400Z SLP270

Hora: 23:18 (06:18 UTC)


TAF: manca

Observacions i pronòstics meteorològics de més de 4000 aeroports (METAR i TAF).

Les estacions disponibles són els punts grocs i vermells al mapa.

Posi el ratolí al punt desitjat per veure el nom de l'estació.

Feu clic per veure les observacions i els pronòstics meteorològics.

Per canviar el mapa: feu clic els botons verds amb una creu de color negre per apropar; al botó verd amb un guió per allunyar la imatge; o en les fletxes verdes per a mapes adjacents.


METAR-TAF: